Time;durP1;ratioP1;P1;durP2;ratioP2;P2;SDS_P1;SDS_P2;PMS_P1;PMS_P2;Temp;Humidity;BMP_temperature;BMP_pressure;BME280_temperature;BME280_humidity;BME280_pressure;Samples;Min_cycle;Max_cycle;Signal;HPM_P1;HPM_P2
2023/06/15 00:01:05;;;;;;;;;23.00;21.33;;;;;25.05;33.61;101008.47;4963750;28;45338;-74
2023/06/15 00:03:31;;;;;;;;;22.00;22.00;;;;;25.33;34.52;101062.25;4998442;28;45630;-71
2023/06/15 00:05:56;;;;;;;;;21.67;21.00;;;;;25.32;33.77;101060.59;4997135;28;45603;-72
2023/06/15 00:08:22;;;;;;;;;25.00;22.33;;;;;25.42;34.65;101087.22;4997279;28;45357;-73
2023/06/15 00:10:48;;;;;;;;;25.33;21.33;;;;;25.37;34.23;101079.75;4995988;28;45294;-71
2023/06/15 00:13:14;;;;;;;;;14.33;14.33;;;;;25.27;34.23;101073.25;4996085;28;45368;-72
2023/06/15 00:15:40;;;;;;;;;22.33;20.00;;;;;24.91;34.59;101019.75;4997079;28;45833;-71
2023/06/15 00:18:06;;;;;;;;;21.67;21.67;;;;;25.10;34.89;101052.13;4997273;28;45227;-71
2023/06/15 00:20:32;;;;;;;;;26.67;23.33;;;;;25.22;34.29;101065.75;4997243;28;45279;-71
2023/06/15 00:22:58;;;;;;;;;23.33;21.67;;;;;25.26;34.40;101082.47;4997494;28;45313;-73
2023/06/15 00:25:24;;;;;;;;;23.67;20.67;;;;;25.20;34.72;101076.03;4997085;28;45738;-73
2023/06/15 00:27:50;;;;;;;;;23.00;19.00;;;;;25.17;34.55;101088.22;4997189;28;45257;-71
2023/06/15 00:30:16;;;;;;;;;20.33;20.33;;;;;25.08;35.24;101076.03;5000444;28;45281;-72
2023/06/15 00:32:41;;;;;;;;;22.33;21.00;;;;;25.05;35.17;101079.22;4983189;28;45336;-72
2023/06/15 00:35:07;;;;;;;;;27.00;23.33;;;;;24.97;35.17;101079.50;5000357;28;46595;-71
2023/06/15 00:37:32;;;;;;;;;24.33;22.33;;;;;25.04;35.22;101101.22;5000201;28;45437;-70
2023/06/15 00:39:58;;;;;;;;;24.00;24.00;;;;;25.02;35.75;101104.13;5000034;28;45357;-71
2023/06/15 00:42:23;;;;;;;;;23.67;23.00;;;;;24.90;35.64;101089.63;5001033;28;45394;-72
2023/06/15 00:44:48;;;;;;;;;24.33;22.67;;;;;24.84;35.49;101085.13;5000301;28;46484;-72
2023/06/15 00:47:20;;;;;;;;;25.67;22.33;;;;;24.85;35.85;101094.94;5000910;28;45183;-72
2023/06/15 00:49:46;;;;;;;;;29.33;24.00;;;;;24.85;36.11;101103.09;5001060;28;45258;-74
2023/06/15 00:52:14;;;;;;;;;23.33;21.33;;;;;24.84;35.79;101106.88;5000168;28;45508;-72
2023/06/15 00:54:40;;;;;;;;;28.33;24.33;;;;;24.81;36.22;101110.88;5000085;28;46343;-72
2023/06/15 00:57:08;;;;;;;;;28.00;24.67;;;;;24.79;36.36;101104.00;4999982;28;45428;-73
2023/06/15 00:59:34;;;;;;;;;19.00;19.00;;;;;23.69;36.01;100929.31;4998867;28;45489;-75
2023/06/15 01:02:00;;;;;;;;;25.00;25.00;;;;;24.77;36.21;101106.94;5001063;28;45242;-74
2023/06/15 01:04:25;;;;;;;;;24.33;21.67;;;;;24.66;36.85;101090.59;4999970;28;45607;-73
2023/06/15 01:06:56;;;;;;;;;24.00;24.00;;;;;24.41;36.40;101061.59;4999836;28;45393;-72
2023/06/15 01:09:23;;;;;;;;;23.00;21.67;;;;;24.60;36.62;101094.19;5000127;28;45266;-75
2023/06/15 01:11:52;;;;;;;;;22.33;21.00;;;;;24.53;36.22;101089.69;5000018;28;45470;-73
2023/06/15 01:14:20;;;;;;;;;23.00;22.67;;;;;24.24;36.78;101036.09;4999913;28;45674;-73
2023/06/15 01:16:52;;;;;;;;;23.00;19.00;;;;;24.51;36.41;101088.25;5000235;28;45383;-72
2023/06/15 01:19:37;;;;;;;;;21.33;21.33;;;;;24.56;36.24;101107.44;4999876;28;45433;-71
2023/06/15 01:22:19;;;;;;;;;19.67;17.00;;;;;24.52;36.31;101104.34;4981915;28;45556;-72
2023/06/15 01:24:52;;;;;;;;;20.50;20.50;;;;;24.46;36.41;101099.81;4999677;28;47104;-72
2023/06/15 01:27:21;;;;;;;;;21.67;18.67;;;;;24.24;36.51;101074.94;4998838;28;45519;-73
2023/06/15 01:29:49;;;;;;;;;21.67;19.00;;;;;24.26;36.83;101077.44;4999683;28;45338;-73
2023/06/15 01:32:15;;;;;;;;;18.67;18.67;;;;;24.29;36.81;101089.78;5000033;28;45415;-72
2023/06/15 01:34:40;;;;;;;;;18.33;18.33;;;;;23.94;37.83;101028.66;4999594;28;46554;-72
2023/06/15 01:37:06;;;;;;;;;19.67;19.67;;;;;23.92;37.44;101028.06;4981397;28;45395;-73
2023/06/15 01:39:31;;;;;;;;;23.00;20.33;;;;;24.40;37.69;101095.25;4998947;28;45556;-72
2023/06/15 01:41:56;;;;;;;;;18.33;16.00;;;;;24.40;36.14;101103.41;4981411;28;45451;-72
2023/06/15 01:44:22;;;;;;;;;18.00;16.00;;;;;24.35;36.54;101100.56;4999394;28;46898;-73
2023/06/15 01:46:48;;;;;;;;;18.67;16.67;;;;;24.32;36.23;101101.00;5000169;28;45413;-74
2023/06/15 01:49:14;;;;;;;;;17.00;15.67;;;;;24.22;36.19;101092.50;4999677;28;45459;-72
2023/06/15 01:51:40;;;;;;;;;20.67;16.00;;;;;23.94;36.38;101053.09;4981702;28;45393;-74
2023/06/15 01:54:06;;;;;;;;;16.00;16.00;;;;;24.27;36.23;101104.38;4999342;28;47050;-72
2023/06/15 01:56:31;;;;;;;;;17.67;17.67;;;;;24.27;37.22;101106.28;4999335;28;45445;-72
2023/06/15 01:58:56;;;;;;;;;14.33;14.33;;;;;24.08;36.14;101072.00;4999549;28;45618;-74
2023/06/15 02:01:25;;;;;;;;;15.33;15.33;;;;;24.17;36.74;101090.47;4999892;28;45294;-71
2023/06/15 02:03:53;;;;;;;;;17.00;16.00;;;;;24.13;36.68;101081.13;4999374;28;46444;-73
2023/06/15 02:06:18;;;;;;;;;13.00;11.00;;;;;24.26;36.82;101107.31;4998996;28;45578;-72
2023/06/15 02:08:43;;;;;;;;;18.33;15.33;;;;;24.24;36.21;101106.72;4999468;28;45674;-74
2023/06/15 02:11:09;;;;;;;;;16.33;13.33;;;;;24.00;36.62;101075.81;4999318;28;45373;-75
2023/06/15 02:13:34;;;;;;;;;12.33;12.33;;;;;23.76;36.22;101034.06;4999052;28;45546;-73
2023/06/15 02:16:00;;;;;;;;;16.67;13.67;;;;;23.79;37.01;101049.06;4999421;28;45342;-74
2023/06/15 02:18:30;;;;;;;;;17.00;16.33;;;;;24.17;37.32;101111.38;4999142;28;45437;-72
2023/06/15 02:20:55;;;;;;;;;18.67;15.67;;;;;24.14;36.32;101103.69;4999084;28;45498;-72
2023/06/15 02:23:21;;;;;;;;;19.33;18.00;;;;;24.12;36.51;101103.06;4999019;28;46492;-73
2023/06/15 02:25:46;;;;;;;;;16.33;14.67;;;;;23.99;36.69;101079.59;4998839;28;45263;-74
2023/06/15 02:28:11;;;;;;;;;20.67;18.33;;;;;24.06;36.56;101104.00;4999535;28;45471;-71
2023/06/15 02:30:38;;;;;;;;;16.00;16.00;;;;;24.09;36.31;101106.25;4981561;28;45315;-73
2023/06/15 02:33:05;;;;;;;;;17.00;17.00;;;;;23.91;37.30;101069.84;4981361;28;48123;-73
2023/06/15 02:35:30;;;;;;;;;20.00;18.67;;;;;23.84;36.94;101071.81;4998185;28;45364;-74
2023/06/15 02:37:56;;;;;;;;;16.00;16.00;;;;;23.92;36.49;101095.94;4998770;28;45447;-73
2023/06/15 02:40:22;;;;;;;;;17.67;14.67;;;;;23.94;37.19;101101.16;4999067;28;45654;-73
2023/06/15 02:42:47;;;;;;;;;18.00;18.00;;;;;23.91;37.07;101113.31;4998504;28;46068;-73
2023/06/15 02:45:13;;;;;;;;;19.67;18.67;;;;;23.32;36.87;101013.34;4998621;28;45297;-74
2023/06/15 02:47:38;;;;;;;;;17.67;16.67;;;;;23.67;37.17;101084.28;4999766;28;45273;-73
2023/06/15 02:50:05;;;;;;;;;17.33;17.00;;;;;23.78;37.19;101107.97;4999557;28;45373;-73
2023/06/15 02:52:31;;;;;;;;;22.00;19.33;;;;;23.69;37.29;101098.47;4997947;28;46223;-73
2023/06/15 02:54:58;;;;;;;;;17.00;16.67;;;;;23.60;37.22;101088.91;4998322;28;45391;-72
2023/06/15 02:57:24;;;;;;;;;19.00;17.33;;;;;23.71;36.92;101101.78;4998338;28;45282;-73
2023/06/15 02:59:49;;;;;;;;;17.67;17.33;;;;;23.71;37.33;101107.22;4998382;28;45556;-74
2023/06/15 03:02:15;;;;;;;;;16.33;16.33;;;;;23.74;36.82;101109.47;4998896;28;46451;-73
2023/06/15 03:04:47;;;;;;;;;16.67;14.33;;;;;23.66;36.84;101102.47;4998101;28;45338;-74
2023/06/15 03:07:16;;;;;;;;;14.67;14.67;;;;;23.68;36.60;101113.09;4998263;28;45508;-74
2023/06/15 03:09:46;;;;;;;;;19.67;18.67;;;;;23.28;37.07;101040.09;4998785;28;45330;-72
2023/06/15 03:12:12;;;;;;;;;19.67;17.33;;;;;23.48;37.60;101063.53;4997987;28;47863;-73
2023/06/15 03:14:37;;;;;;;;;21.00;18.00;;;;;23.69;36.84;101103.91;4996764;28;45354;-72
2023/06/15 03:17:03;;;;;;;;;16.33;15.67;;;;;23.58;36.90;101078.28;4998572;28;45516;-74
2023/06/15 03:19:29;;;;;;;;;18.00;15.67;;;;;23.73;38.12;101110.53;4998249;28;45460;-73
2023/06/15 03:21:55;;;;;;;;;21.00;18.67;;;;;23.67;37.69;101095.16;4997803;28;45759;-73
2023/06/15 03:24:21;;;;;;;;;18.00;16.67;;;;;23.73;36.76;101115.97;4997923;28;45327;-74
2023/06/15 03:26:47;;;;;;;;;18.67;17.67;;;;;23.52;36.53;101087.28;4996773;28;45341;-72
2023/06/15 03:29:13;;;;;;;;;23.33;21.00;;;;;23.69;36.85;101113.94;4998833;28;45493;-72
2023/06/15 03:31:40;;;;;;;;;14.67;13.67;;;;;23.62;36.53;101097.66;4980781;28;47746;-73
2023/06/15 03:34:09;;;;;;;;;16.00;14.00;;;;;23.65;36.98;101119.78;4997940;28;45336;-73
2023/06/15 03:36:35;;;;;;;;;15.00;14.33;;;;;23.49;37.06;101093.16;4979956;28;45491;-74
2023/06/15 03:39:01;;;;;;;;;17.33;17.33;;;;;23.60;36.83;101100.59;4997723;28;45365;-72
2023/06/15 03:41:27;;;;;;;;;16.67;16.67;;;;;23.61;36.98;101112.28;4997566;28;46154;-72
2023/06/15 03:43:53;;;;;;;;;16.00;13.33;;;;;23.63;36.82;101118.38;4997659;28;45481;-72
2023/06/15 03:46:18;;;;;;;;;15.67;14.33;;;;;23.42;36.87;101096.97;4998531;28;45452;-74
2023/06/15 03:48:44;;;;;;;;;23.00;20.33;;;;;23.58;36.96;101118.16;4998633;28;45235;-72
2023/06/15 03:51:09;;;;;;;;;19.33;17.33;;;;;23.20;37.53;101061.22;4997802;28;45531;-74
2023/06/15 03:53:36;;;;;;;;;21.67;18.00;;;;;23.12;36.90;101046.06;4997863;28;45255;-72
2023/06/15 03:56:01;;;;;;;;;19.00;19.00;;;;;23.33;36.85;101094.53;4997781;28;45234;-72
2023/06/15 03:58:27;;;;;;;;;15.67;15.00;;;;;23.34;37.21;101101.63;4997216;28;45810;-73
2023/06/15 04:00:52;;;;;;;;;23.67;22.33;;;;;23.31;37.78;101096.63;4980270;28;47565;-72
2023/06/15 04:03:18;;;;;;;;;20.67;18.67;;;;;23.41;37.36;101106.97;4996115;28;45403;-75
2023/06/15 04:05:43;;;;;;;;;15.00;15.00;;;;;23.44;37.55;101119.31;4979404;28;45290;-73
2023/06/15 04:08:09;;;;;;;;;19.00;17.00;;;;;23.38;37.46;101116.41;4997683;28;45471;-74
2023/06/15 04:10:35;;;;;;;;;23.67;20.00;;;;;23.43;37.73;101118.47;4997670;28;46633;-73
2023/06/15 04:13:00;;;;;;;;;22.67;20.33;;;;;23.46;38.24;101128.88;4995940;28;45363;-75
2023/06/15 04:15:26;;;;;;;;;18.67;18.67;;;;;23.43;37.56;101121.19;4996955;28;46112;-73
2023/06/15 04:17:51;;;;;;;;;20.33;18.33;;;;;23.48;37.80;101128.66;4997116;28;45310;-74
2023/06/15 04:20:16;;;;;;;;;22.67;20.67;;;;;23.41;37.76;101119.72;4996474;28;46419;-73
2023/06/15 04:22:42;;;;;;;;;17.67;15.00;;;;;23.49;37.77;101138.47;4997150;28;45446;-73
2023/06/15 04:25:08;;;;;;;;;22.00;20.33;;;;;23.47;37.76;101143.28;4997302;28;45536;-72
2023/06/15 04:27:34;;;;;;;;;17.00;17.00;;;;;23.43;38.21;101139.34;4997477;28;45499;-73
2023/06/15 04:30:00;;;;;;;;;19.67;17.00;;;;;23.42;37.84;101141.22;4997094;28;45685;-73
2023/06/15 04:32:25;;;;;;;;;16.67;15.00;;;;;23.35;38.17;101138.53;4979409;28;45484;-74
2023/06/15 04:34:52;;;;;;;;;16.33;16.33;;;;;23.28;37.94;101136.94;4996932;28;45344;-73
2023/06/15 04:37:18;;;;;;;;;14.67;14.33;;;;;23.35;37.76;101140.44;4997084;28;45219;-73
2023/06/15 04:39:44;;;;;;;;;16.67;14.67;;;;;23.27;37.49;101148.84;4996486;28;46558;-73
2023/06/15 04:42:09;;;;;;;;;16.00;13.00;;;;;23.33;38.42;101145.25;4996992;28;45528;-73
2023/06/15 04:44:35;;;;;;;;;16.67;16.67;;;;;23.29;38.30;101157.59;4979812;28;45414;-73
2023/06/15 04:47:03;;;;;;;;;14.00;12.67;;;;;23.31;38.51;101150.88;4997289;28;45501;-73
2023/06/15 04:49:30;;;;;;;;;12.67;11.00;;;;;22.79;38.30;101059.78;4996717;28;46153;-74
2023/06/15 04:51:56;;;;;;;;;22.00;16.00;;;;;23.40;37.88;101153.34;4978296;28;45252;-74
2023/06/15 04:54:21;;;;;;;;;20.33;16.67;;;;;23.47;38.02;101156.84;4996453;28;45247;-72
2023/06/15 04:56:46;;;;;;;;;16.00;16.00;;;;;23.50;38.36;101159.13;4996324;28;46505;-74
2023/06/15 04:59:12;;;;;;;;;16.00;12.67;;;;;23.46;38.12;101158.75;4997362;28;46554;-73
2023/06/15 05:01:37;;;;;;;;;17.00;15.67;;;;;23.36;38.20;101125.81;4998574;28;45467;-72
2023/06/15 05:04:03;;;;;;;;;19.00;17.00;;;;;23.58;38.12;101162.44;4997268;28;45342;-71
2023/06/15 05:06:28;;;;;;;;;17.00;15.00;;;;;23.60;38.02;101156.78;4996702;28;45431;-73
2023/06/15 05:08:53;;;;;;;;;12.33;12.33;;;;;23.61;38.01;101167.41;4978773;28;47233;-72
2023/06/15 05:11:19;;;;;;;;;14.33;13.67;;;;;23.58;37.89;101161.59;4979118;28;45387;-74
2023/06/15 05:13:44;;;;;;;;;18.67;15.67;;;;;23.38;38.28;101124.53;4996664;28;45495;-73
2023/06/15 05:16:10;;;;;;;;;16.67;15.00;;;;;23.57;38.46;101154.50;5000103;28;46645;-73
2023/06/15 05:18:35;;;;;;;;;16.33;15.33;;;;;23.56;38.34;101152.81;4999390;28;46548;-73
2023/06/15 05:21:01;;;;;;;;;17.00;14.33;;;;;23.69;38.49;101162.78;4999367;28;45611;-72
2023/06/15 05:23:27;;;;;;;;;15.33;15.33;;;;;23.67;38.12;101160.28;4999583;28;45309;-73
2023/06/15 05:25:53;;;;;;;;;14.67;14.33;;;;;23.62;37.93;101154.66;4999831;28;45575;-72
2023/06/15 05:28:18;;;;;;;;;18.67;16.00;;;;;23.74;38.10;101169.22;4999290;28;45576;-73
2023/06/15 05:30:44;;;;;;;;;15.67;15.67;;;;;23.71;38.41;101172.38;4982652;28;45478;-74
2023/06/15 05:33:10;;;;;;;;;15.00;15.00;;;;;23.67;38.09;101149.44;4999779;28;45338;-73
2023/06/15 05:35:35;;;;;;;;;12.67;12.67;;;;;23.80;38.06;101179.19;4998925;28;45297;-73
2023/06/15 05:38:01;;;;;;;;;14.33;12.67;;;;;23.79;38.26;101180.22;4981596;28;48414;-74
2023/06/15 05:40:26;;;;;;;;;18.67;16.00;;;;;23.32;37.86;101092.88;5000080;28;45535;-75
2023/06/15 05:42:51;;;;;;;;;16.67;15.67;;;;;23.77;38.24;101166.06;4990732;28;45235;-72
2023/06/15 05:45:17;;;;;;;;;16.33;15.33;;;;;23.75;37.79;101160.00;4979503;28;45351;-72
2023/06/15 05:47:42;;;;;;;;;17.00;15.67;;;;;23.92;38.48;101182.03;4979289;28;45687;-73
2023/06/15 05:50:08;;;;;;;;;15.00;15.00;;;;;24.01;38.34;101190.72;4959963;28;51216;-73
2023/06/15 05:52:33;;;;;;;;;20.67;17.00;;;;;24.14;38.42;101171.59;4978320;28;45513;-73
2023/06/15 05:54:59;;;;;;;;;15.00;14.00;;;;;24.35;37.59;101176.66;4977446;28;45535;-72
2023/06/15 05:57:24;;;;;;;;;18.00;16.00;;;;;24.52;37.57;101172.28;4978013;28;45530;-73
2023/06/15 05:59:49;;;;;;;;;15.00;14.67;;;;;24.56;36.85;101138.16;4979167;28;51730;-74
2023/06/15 06:02:15;;;;;;;;;15.67;14.67;;;;;25.04;36.40;101189.09;4978035;28;45476;-75
2023/06/15 06:04:40;;;;;;;;;14.67;11.33;;;;;25.24;35.78;101177.13;4961888;28;45504;-75
2023/06/15 06:07:06;;;;;;;;;18.33;16.67;;;;;25.74;35.90;101189.38;4961987;28;46581;-72
2023/06/15 06:09:36;;;;;;;;;15.00;14.00;;;;;25.98;34.95;101168.44;4980027;28;45294;-76
2023/06/15 06:12:02;;;;;;;;;15.00;15.00;;;;;26.33;34.36;101182.09;4979978;28;45271;-72
2023/06/15 06:14:28;;;;;;;;;15.00;13.00;;;;;26.46;33.77;101186.50;4964447;28;45261;-73
2023/06/15 06:16:55;;;;;;;;;15.67;14.67;;;;;26.47;33.27;101179.16;4979340;28;45669;-73
2023/06/15 06:19:22;;;;;;;;;11.67;10.67;;;;;26.54;32.40;101188.03;4978852;28;45329;-72
2023/06/15 06:21:47;;;;;;;;;12.67;12.67;;;;;26.45;32.53;101167.66;4978824;28;45361;-74
2023/06/15 06:24:12;;;;;;;;;15.33;13.67;;;;;26.65;32.44;101190.75;4979366;28;45313;-71
2023/06/15 06:26:38;;;;;;;;;17.33;14.00;;;;;26.60;32.79;101177.00;4979047;28;46526;-70
2023/06/15 06:29:03;;;;;;;;;10.33;10.33;;;;;26.78;32.83;101199.75;4959759;28;45902;-71
2023/06/15 06:31:29;;;;;;;;;12.33;12.33;;;;;26.75;32.76;101179.22;4970793;28;45591;-73
2023/06/15 06:33:54;;;;;;;;;14.67;13.67;;;;;26.82;32.24;101173.63;4976818;28;45355;-73
2023/06/15 06:36:19;;;;;;;;;16.33;16.33;;;;;27.04;32.16;101176.59;4977341;28;45207;-73
2023/06/15 06:38:45;;;;;;;;;14.00;13.00;;;;;27.21;31.79;101199.28;4977529;28;45501;-73
2023/06/15 06:41:10;;;;;;;;;16.00;14.33;;;;;27.32;32.08;101206.63;4956530;28;45346;-71
2023/06/15 06:43:36;;;;;;;;;20.33;17.33;;;;;27.44;32.13;101207.41;4958937;28;45239;-74
2023/06/15 06:46:01;;;;;;;;;20.00;17.00;;;;;27.51;32.18;101210.81;4959286;28;47258;-74
2023/06/15 06:48:27;;;;;;;;;14.00;13.00;;;;;27.57;31.87;101214.44;4960829;28;45616;-73
2023/06/15 06:50:52;;;;;;;;;17.33;15.67;;;;;27.63;31.57;101212.66;4960803;28;45239;-72
2023/06/15 06:53:17;;;;;;;;;15.33;14.00;;;;;27.60;31.67;101219.41;4979119;28;45513;-75
2023/06/15 06:55:44;;;;;;;;;10.33;10.33;;;;;27.58;31.17;101213.38;4978686;28;45652;-73
2023/06/15 06:58:11;;;;;;;;;17.33;14.67;;;;;27.53;31.78;101224.22;4960902;28;45395;-75
2023/06/15 07:00:36;;;;;;;;;14.33;12.33;;;;;27.44;31.40;101212.88;4960114;28;45367;-75
2023/06/15 07:03:01;;;;;;;;;15.67;13.67;;;;;27.45;31.06;101222.72;4968476;28;45605;-73
2023/06/15 07:05:27;;;;;;;;;13.33;12.33;;;;;27.47;31.21;101227.94;4975436;28;46173;-72
2023/06/15 07:07:52;;;;;;;;;15.00;15.00;;;;;27.37;31.29;101206.72;4977515;28;45567;-73
2023/06/15 07:10:17;;;;;;;;;13.33;12.33;;;;;27.55;31.13;101228.34;4977401;28;45332;-72
2023/06/15 07:12:43;;;;;;;;;12.00;12.00;;;;;27.50;31.06;101214.63;4977402;28;45309;-76
2023/06/15 07:15:08;;;;;;;;;15.67;15.67;;;;;27.47;31.35;101206.09;4977153;28;46771;-73
2023/06/15 07:17:34;;;;;;;;;14.00;13.33;;;;;27.64;31.71;101220.66;4964277;28;45306;-73
2023/06/15 07:19:59;;;;;;;;;11.00;11.00;;;;;27.82;31.65;101239.53;4971154;28;45392;-72
2023/06/15 07:22:25;;;;;;;;;14.33;14.33;;;;;27.73;31.27;101210.13;4978088;28;45515;-73
2023/06/15 07:24:51;;;;;;;;;16.67;12.67;;;;;27.60;30.54;101186.66;4977377;28;46315;-74
2023/06/15 07:27:18;;;;;;;;;18.00;15.00;;;;;28.02;30.83;101241.78;4977684;28;45335;-72
2023/06/15 07:29:44;;;;;;;;;13.67;13.67;;;;;27.91;30.55;101209.91;4977315;28;45265;-73
2023/06/15 07:32:09;;;;;;;;;14.67;12.67;;;;;27.78;30.40;101186.44;4977899;28;45623;-74
2023/06/15 07:34:35;;;;;;;;;12.00;12.00;;;;;28.08;29.71;101240.81;4975971;28;47454;-71
2023/06/15 07:37:00;;;;;;;;;12.00;12.00;;;;;28.11;29.97;101242.22;4976895;28;45267;-72
2023/06/15 07:39:25;;;;;;;;;8.67;8.67;;;;;28.09;30.09;101231.53;4975773;28;45490;-73
2023/06/15 07:41:51;;;;;;;;;10.33;8.67;;;;;28.27;29.29;101246.06;4975960;28;45362;-73
2023/06/15 07:44:16;;;;;;;;;10.67;10.67;;;;;28.36;29.09;101239.09;4976679;28;56496;-73
2023/06/15 07:46:42;;;;;;;;;10.33;9.00;;;;;28.02;28.82;101173.44;4976644;28;45300;-72
2023/06/15 07:49:07;;;;;;;;;9.67;9.67;;;;;28.52;29.18;101238.25;4976874;28;45417;-72
2023/06/15 07:51:36;;;;;;;;;11.33;11.33;;;;;28.59;28.58;101238.88;4977190;28;45293;-73
2023/06/15 07:54:02;;;;;;;;;10.67;10.67;;;;;28.23;29.04;101160.09;4976191;28;46330;-73
2023/06/15 07:56:27;;;;;;;;;9.33;9.00;;;;;28.69;29.15;101228.09;4977199;28;45243;-73
2023/06/15 07:58:53;;;;;;;;;12.67;11.67;;;;;28.75;28.92;101226.25;4977254;28;45539;-72
2023/06/15 08:01:19;;;;;;;;;9.00;9.00;;;;;28.83;27.68;101222.25;4977912;28;45239;-73
2023/06/15 08:03:45;;;;;;;;;12.33;11.33;;;;;28.91;27.97;101230.88;4977060;28;45888;-73
2023/06/15 08:06:11;;;;;;;;;12.00;12.00;;;;;28.85;28.05;101217.38;4976674;28;49091;-73
2023/06/15 08:08:36;;;;;;;;;12.67;10.33;;;;;28.82;28.66;101220.59;4975039;28;45686;-74
2023/06/15 08:11:02;;;;;;;;;11.33;11.33;;;;;28.88;28.75;101233.31;4975270;28;45298;-72
2023/06/15 08:13:27;;;;;;;;;13.33;12.33;;;;;28.85;28.84;101222.84;4977135;28;46294;-74
2023/06/15 08:15:53;;;;;;;;;12.67;11.33;;;;;29.03;28.56;101249.91;4976189;28;45485;-72
2023/06/15 08:18:19;;;;;;;;;10.00;10.00;;;;;29.03;28.44;101238.97;4976038;28;45472;-73
2023/06/15 08:20:44;;;;;;;;;13.00;13.00;;;;;29.11;28.56;101249.47;4976843;28;45448;-74
2023/06/15 08:23:10;;;;;;;;;12.67;10.00;;;;;29.15;28.42;101252.53;4957685;28;47386;-74
2023/06/15 08:25:35;;;;;;;;;11.00;10.00;;;;;29.10;27.96;101245.09;4976833;28;45241;-73
2023/06/15 08:28:02;;;;;;;;;14.67;14.00;;;;;29.17;28.09;101240.25;4976346;28;45252;-72
2023/06/15 08:30:27;;;;;;;;;11.33;11.33;;;;;29.27;27.41;101251.34;4975294;28;45405;-73
2023/06/15 08:32:53;;;;;;;;;12.33;10.33;;;;;29.32;27.70;101259.59;4958046;28;48794;-73
2023/06/15 08:35:18;;;;;;;;;13.33;12.67;;;;;29.32;27.45;101248.63;4976093;28;45445;-73
2023/06/15 08:37:43;;;;;;;;;11.00;11.00;;;;;29.17;27.73;101232.03;4959687;28;45538;-74
2023/06/15 08:40:10;;;;;;;;;12.00;10.00;;;;;29.39;27.79;101252.00;4956874;28;45971;-72
2023/06/15 08:42:36;;;;;;;;;9.00;9.00;;;;;29.20;28.03;101222.47;4958921;28;47102;-72
2023/06/15 08:45:05;;;;;;;;;11.00;11.00;;;;;29.34;27.50;101246.47;4956289;28;46076;-74
2023/06/15 08:47:33;;;;;;;;;13.00;11.67;;;;;29.17;27.61;101212.84;4976416;28;45528;-73
2023/06/15 08:50:01;;;;;;;;;11.67;9.33;;;;;28.16;27.24;101035.34;4978005;28;45458;-74
2023/06/15 08:52:28;;;;;;;;;10.00;9.67;;;;;29.42;26.89;101223.25;4979378;28;45789;-73
2023/06/15 08:54:55;;;;;;;;;11.33;11.33;;;;;29.18;26.82;101183.56;4979397;28;45475;-75
2023/06/15 08:57:21;;;;;;;;;9.33;9.00;;;;;29.56;27.30;101238.25;4980987;28;45402;-72
2023/06/15 08:59:46;;;;;;;;;11.00;10.00;;;;;29.63;26.44;101241.63;4977488;28;45607;-73
2023/06/15 09:02:19;;;;;;;;;11.67;11.33;;;;;29.68;26.48;101243.59;4976364;28;45516;-73
2023/06/15 09:04:45;;;;;;;;;11.33;10.33;;;;;29.76;26.91;101251.31;4979257;28;45275;-74
2023/06/15 09:07:12;;;;;;;;;6.67;6.67;;;;;29.80;26.20;101259.84;4977692;28;45852;-74
2023/06/15 09:09:38;;;;;;;;;12.67;10.67;;;;;29.66;26.86;101226.56;4978221;28;45408;-73
2023/06/15 09:12:05;;;;;;;;;8.33;7.33;;;;;29.78;27.25;101243.66;4980042;28;46324;-73
2023/06/15 09:14:40;;;;;;;;;12.67;12.67;;;;;29.79;26.83;101252.72;4977492;28;45519;-79
2023/06/15 09:17:12;;;;;;;;;11.00;9.33;;;;;29.19;27.42;101150.44;4977508;28;45478;-74
2023/06/15 09:19:38;;;;;;;;;9.00;7.67;;;;;29.76;27.40;101237.63;4978493;28;45512;-73
2023/06/15 09:22:07;;;;;;;;;11.00;10.00;;;;;29.86;26.97;101245.13;4978160;28;46060;-72
2023/06/15 09:24:38;;;;;;;;;13.33;11.00;;;;;29.80;26.78;101249.72;4979316;28;45639;-74
2023/06/15 09:27:13;;;;;;;;;10.00;10.00;;;;;29.76;27.03;101243.09;4979224;28;45585;-72
2023/06/15 09:29:39;;;;;;;;;13.33;11.33;;;;;29.64;26.20;101234.22;4978799;28;45524;-73
2023/06/15 09:32:05;;;;;;;;;10.00;10.00;;;;;29.70;26.37;101252.38;4978618;28;46758;-73
2023/06/15 09:34:31;;;;;;;;;5.33;5.33;;;;;29.61;25.91;101252.00;4979017;28;45389;-73
2023/06/15 09:36:56;;;;;;;;;9.67;9.00;;;;;29.60;26.48;101252.25;4978856;28;45528;-73
2023/06/15 09:39:23;;;;;;;;;9.33;7.67;;;;;29.54;26.52;101245.06;4978049;28;45452;-73
2023/06/15 09:41:56;;;;;;;;;12.00;10.33;;;;;29.48;26.52;101251.59;4978429;28;46396;-72
2023/06/15 09:44:23;;;;;;;;;12.33;12.33;;;;;29.34;26.89;101229.22;4977610;28;45447;-75
2023/06/15 09:46:52;;;;;;;;;10.00;10.00;;;;;29.33;26.73;101228.38;4968261;28;45530;-72
2023/06/15 09:49:28;;;;;;;;;9.00;9.00;;;;;29.20;26.78;101203.28;4970448;28;45588;-73
2023/06/15 09:51:54;;;;;;;;;11.33;9.00;;;;;29.30;26.32;101211.63;4969413;28;46611;-73
2023/06/15 09:54:24;;;;;;;;;9.67;9.67;;;;;29.34;25.93;101235.50;4976248;28;45996;-73
2023/06/15 09:56:53;;;;;;;;;7.67;7.33;;;;;29.46;26.20;101240.06;4979423;28;45346;-72
2023/06/15 09:59:20;;;;;;;;;11.33;10.00;;;;;29.38;25.99;101233.91;4977600;28;45425;-74
2023/06/15 10:01:48;;;;;;;;;12.00;10.33;;;;;29.29;27.09;101223.69;4964177;28;45851;-74
2023/06/15 10:04:15;;;;;;;;;10.67;10.67;;;;;29.19;26.23;101210.69;4976788;28;45286;-73
2023/06/15 10:06:44;;;;;;;;;10.00;10.00;;;;;29.36;27.01;101244.31;4976454;28;45367;-74
2023/06/15 10:09:11;;;;;;;;;12.67;11.67;;;;;29.35;26.54;101245.38;4977236;28;45657;-72
2023/06/15 10:11:41;;;;;;;;;11.67;10.67;;;;;29.24;26.73;101227.19;4978397;28;46698;-72
2023/06/15 10:14:20;;;;;;;;;12.33;12.33;;;;;29.28;25.69;101243.94;4976548;28;45358;-74
2023/06/15 10:16:56;;;;;;;;;9.67;8.67;;;;;29.35;26.55;101247.31;4967938;28;45594;-73
2023/06/15 10:19:25;;;;;;;;;10.00;10.00;;;;;29.33;25.84;101244.81;4971377;28;45278;-74
2023/06/15 10:21:51;;;;;;;;;11.33;10.00;;;;;29.27;25.72;101245.84;4978522;28;45894;-72
2023/06/15 10:24:21;;;;;;;;;9.33;9.33;;;;;29.32;25.28;101248.63;4978237;28;45609;-73
2023/06/15 10:26:46;;;;;;;;;9.67;9.67;;;;;29.25;25.77;101250.75;4958677;28;45368;-73
2023/06/15 10:29:23;;;;;;;;;10.67;9.67;;;;;28.93;26.05;101197.78;4949971;28;45689;-74
2023/06/15 10:32:07;;;;;;;;;8.33;7.67;;;;;29.10;26.13;101239.63;4959346;28;46062;-74
2023/06/15 10:34:48;;;;;;;;;11.67;10.33;;;;;29.03;25.08;101244.44;4971451;28;45311;-74
2023/06/15 10:37:50;;;;;;;;;10.67;10.67;;;;;28.94;25.95;101235.84;4978368;28;45349;-73
2023/06/15 10:40:27;;;;;;;;;9.00;8.00;;;;;28.59;24.77;101189.63;4975615;28;45473;-74
2023/06/15 10:42:55;;;;;;;;;13.00;13.00;;;;;28.88;25.11;101236.03;4968512;28;46423;-74
2023/06/15 10:45:31;;;;;;;;;15.00;13.00;;;;;28.89;25.94;101244.00;4978176;28;45504;-73
2023/06/15 10:47:59;;;;;;;;;13.33;13.00;;;;;28.84;25.52;101229.41;4977667;28;45477;-72
2023/06/15 10:50:25;;;;;;;;;14.00;14.00;;;;;28.85;25.90;101226.41;4978118;28;45542;-73
2023/06/15 10:52:51;;;;;;;;;13.00;11.67;;;;;28.69;26.16;101198.00;4977018;28;47241;-75
2023/06/15 10:55:22;;;;;;;;;14.67;12.67;;;;;28.92;25.98;101245.41;4976937;28;45513;-75
2023/06/15 10:57:48;;;;;;;;;13.67;12.67;;;;;28.91;25.50;101236.38;4976513;28;45444;-74
2023/06/15 11:00:24;;;;;;;;;12.33;10.33;;;;;28.82;25.42;101228.78;4976178;28;45350;-73
2023/06/15 11:02:54;;;;;;;;;12.00;12.00;;;;;28.85;25.57;101236.53;4977313;28;46500;-73
2023/06/15 11:05:21;;;;;;;;;12.67;12.67;;;;;28.82;25.64;101226.06;4975366;28;45466;-76
2023/06/15 11:07:50;;;;;;;;;13.00;13.00;;;;;28.88;25.88;101241.53;4978178;28;45422;-74